Time;durP1;ratioP1;P1;durP2;ratioP2;P2;SDS_P1;SDS_P2;PMS_P1;PMS_P2;Temp;Humidity;BMP_temperature;BMP_pressure;BME280_temperature;BME280_humidity;BME280_pressure;Samples;Min_cycle;Max_cycle;Signal;HPM_P1;HPM_P2
2022/11/13 11:03:17;;;;;;;0.50;0.40;;;;;;;18.23;53.36;101712.81;4533458;27;1322348;-91
2022/11/13 11:06:02;;;;;;;1.47;0.60;;;;;;;18.19;53.61;101706.97;4768556;29;20038;-89
2022/11/13 11:08:32;;;;;;;0.82;0.50;;;;;;;18.22;53.50;101715.72;4799207;29;20042;-89
2022/11/13 11:14:31;;;;;;;2.92;0.63;;;;;;;18.26;53.40;101716.97;4793059;29;20636;-89
2022/11/13 11:16:56;;;;;;;3.30;0.52;;;;;;;18.28;53.33;101714.88;4796505;29;20038;-89
2022/11/13 11:19:24;;;;;;;2.90;0.43;;;;;;;18.25;53.46;101720.72;4799495;29;20057;-89
2022/11/13 11:21:52;;;;;;;1.05;0.40;;;;;;;18.18;53.27;101699.91;4785904;29;20038;-88
2022/11/13 11:24:27;;;;;;;3.08;0.82;;;;;;;18.23;53.37;101720.09;4788864;29;20034;-89
2022/11/13 11:27:21;;;;;;;1.20;0.30;;;;;;;18.17;53.78;101722.56;4816832;29;20018;-87
2022/11/13 11:29:47;;;;;;;3.40;0.40;;;;;;;18.09;51.83;101725.50;4785705;29;20167;-81
2022/11/13 11:32:24;;;;;;;1.08;0.35;;;;;;;18.08;53.07;101729.22;4827051;29;20038;-86
2022/11/13 11:34:55;;;;;;;3.47;0.57;;;;;;;18.08;52.95;101725.69;4795901;29;20030;-87
2022/11/13 11:37:23;;;;;;;1.95;0.60;;;;;;;18.16;52.51;101729.03;4786709;29;20064;-86
2022/11/13 11:40:09;;;;;;;4.45;0.70;;;;;;;18.16;52.32;101731.75;4786594;29;20056;-87
2022/11/13 11:42:52;;;;;;;3.70;0.60;;;;;;;18.14;52.07;101728.41;4797138;29;20304;-86
2022/11/13 11:45:23;;;;;;;2.63;0.52;;;;;;;18.23;52.06;101739.03;4790221;29;20031;-86
2022/11/13 11:47:49;;;;;;;1.92;0.57;;;;;;;18.18;52.12;101735.06;4777051;29;20038;-86
2022/11/13 11:50:16;;;;;;;4.00;0.60;;;;;;;18.13;52.11;101734.03;4769682;29;20108;-86
2022/11/13 11:52:48;;;;;;;1.83;0.68;;;;;;;18.20;52.47;101741.09;4768727;29;20030;-86
2022/11/13 11:55:29;;;;;;;1.33;0.50;;;;;;;18.20;52.54;101743.00;4778151;29;20026;-86
2022/11/13 11:58:20;;;;;;;2.75;0.52;;;;;;;18.18;52.81;101748.59;4790546;29;20031;-86
2022/11/13 12:00:50;;;;;;;1.20;0.40;;;;;;;18.11;53.05;101741.50;4786338;29;20031;-86
2022/11/13 12:03:39;;;;;;;7.25;0.60;;;;;;;18.08;53.20;101742.75;4758860;29;20047;-86
2022/11/13 12:06:30;;;;;;;2.88;0.50;;;;;;;18.13;53.26;101748.38;4791325;29;20034;-86
2022/11/13 12:09:27;;;;;;;1.52;0.43;;;;;;;18.16;53.17;101761.50;4804966;29;20071;-86
2022/11/13 12:12:06;;;;;;;2.47;0.60;;;;;;;18.17;52.90;101763.16;4785843;29;20047;-86
2022/11/13 12:14:44;;;;;;;1.83;0.43;;;;;;;18.20;52.69;101751.94;4787473;29;20365;-86
2022/11/13 12:17:29;;;;;;;1.40;0.60;;;;;;;18.22;52.65;101761.72;4798815;29;20042;-86
2022/11/13 12:20:13;;;;;;;2.05;0.40;;;;;;;18.24;52.58;101762.34;4792800;29;20098;-86
2022/11/13 12:22:54;;;;;;;1.92;0.57;;;;;;;18.23;52.78;101766.09;4811218;29;20039;-86
2022/11/13 12:25:51;;;;;;;2.42;0.50;;;;;;;18.22;52.78;101776.09;4805526;29;21247;-86
2022/11/13 12:28:30;;;;;;;0.95;0.38;;;;;;;18.22;52.78;101767.13;4793104;29;20049;-86
2022/11/13 12:31:37;;;;;;;1.95;0.50;;;;;;;18.21;53.01;101766.28;4794249;29;20034;-86
2022/11/13 12:34:33;;;;;;;0.80;0.30;;;;;;;18.24;53.18;101773.19;4798794;29;20303;-86
2022/11/13 12:36:59;;;;;;;1.25;0.40;;;;;;;18.22;53.30;101775.25;4813627;29;20488;-86
2022/11/13 12:39:43;;;;;;;2.28;0.77;;;;;;;18.25;53.15;101772.13;4795153;29;20058;-86
2022/11/13 12:42:21;;;;;;;2.30;0.50;;;;;;;18.24;53.13;101778.59;4809522;29;20030;-86
2022/11/13 12:45:08;;;;;;;1.02;0.50;;;;;;;18.25;53.09;101780.22;4780818;29;20034;-86
2022/11/13 12:47:34;;;;;;;1.08;0.40;;;;;;;18.24;52.91;101771.28;4788389;29;20068;-86
2022/11/13 12:50:23;;;;;;;0.75;0.40;;;;;;;18.25;53.03;101770.28;4799696;29;20031;-86
2022/11/13 12:53:08;;;;;;;2.13;0.50;;;;;;;18.26;52.97;101771.09;4814089;29;20117;-86
2022/11/13 12:55:34;;;;;;;;;;;;;;;18.27;53.01;101773.59;4814329;29;20030;-83
2022/11/13 12:58:10;;;;;;;2.17;0.52;;;;;;;18.27;53.19;101778.19;4795753;29;19935;-85
2022/11/13 13:00:39;;;;;;;1.75;0.50;;;;;;;18.26;52.98;101771.91;4795727;29;20038;-85
2022/11/13 13:03:36;;;;;;;0.95;0.40;;;;;;;18.28;53.12;101782.53;4798890;29;20099;-86
2022/11/13 13:06:14;;;;;;;0.95;0.47;;;;;;;18.26;53.26;101771.91;4787859;29;20306;-86
2022/11/13 13:09:20;;;;;;;1.08;0.38;;;;;;;18.28;53.12;101775.28;4786070;29;20042;-86
2022/11/13 13:11:58;;;;;;;2.05;0.50;;;;;;;18.24;53.10;101767.75;4794911;29;20180;-86
2022/11/13 13:14:30;;;;;;;1.10;0.40;;;;;;;18.29;52.94;101773.41;4770516;29;20059;-86
2022/11/13 13:17:14;;;;;;;1.90;0.60;;;;;;;18.28;53.02;101775.28;4791646;29;20439;-86
2022/11/13 13:19:40;;;;;;;0.65;0.30;;;;;;;18.20;53.37;101772.75;4794673;29;20039;-87
2022/11/13 13:22:13;;;;;;;0.55;0.32;;;;;;;18.18;53.46;101781.06;4794908;29;20041;-87
2022/11/13 13:24:38;;;;;;;3.20;0.50;;;;;;;18.20;53.47;101779.00;4781451;29;20654;-88
2022/11/13 13:27:24;;;;;;;1.27;0.40;;;;;;;18.09;53.09;101776.91;4795993;29;20240;-89
2022/11/13 13:29:50;;;;;;;1.55;0.75;;;;;;;18.21;52.62;101779.81;4769319;29;20086;-90
2022/11/13 13:32:38;;;;;;;1.98;0.30;;;;;;;18.09;50.96;101782.31;4794699;29;20375;-88
2022/11/13 13:35:14;;;;;;;2.25;0.40;;;;;;;17.96;50.96;101782.25;4798834;29;20237;-88
2022/11/13 13:37:44;;;;;;;1.48;0.57;;;;;;;17.97;50.48;101783.91;4792821;29;20039;-87
2022/11/13 13:40:32;;;;;;;2.50;0.70;;;;;;;18.22;50.04;101791.50;4774786;29;20393;-88
2022/11/13 13:43:35;;;;;;;2.03;0.50;;;;;;;18.34;49.76;101792.56;4795200;29;20086;-87
2022/11/13 13:46:16;;;;;;;1.27;0.50;;;;;;;18.43;49.40;101788.59;4791979;29;20042;-88
2022/11/13 13:48:44;;;;;;;1.45;0.50;;;;;;;18.51;49.50;101798.44;4773666;29;20739;-88
2022/11/13 13:51:21;;;;;;;2.65;0.43;;;;;;;18.55;49.41;101802.38;4770137;29;20046;-87
2022/11/13 13:53:47;;;;;;;2.58;0.47;;;;;;;18.57;49.53;101800.28;4779933;29;20110;-88
2022/11/13 13:56:13;;;;;;;3.70;0.47;;;;;;;18.65;49.42;101807.41;4769995;29;20489;-87
2022/11/13 13:58:39;;;;;;;1.08;0.50;;;;;;;18.65;49.45;101801.97;4779857;29;20027;-87
2022/11/13 14:01:06;;;;;;;1.27;0.60;;;;;;;18.63;49.53;101804.91;4784826;29;20070;-87
2022/11/13 14:03:31;;;;;;;0.65;0.32;;;;;;;18.68;49.68;101806.97;4770521;29;20051;-87
2022/11/13 14:06:23;;;;;;;1.55;0.35;;;;;;;18.74;49.67;101806.13;4768690;29;20116;-87
2022/11/13 14:08:48;;;;;;;1.52;0.63;;;;;;;18.74;49.45;101814.25;4785668;29;20118;-88
2022/11/13 14:11:23;;;;;;;0.57;0.28;;;;;;;18.77;49.50;101816.56;4768627;29;20034;-87
2022/11/13 14:13:49;;;;;;;0.95;0.43;;;;;;;18.82;49.66;101815.97;4767142;29;20087;-88
2022/11/13 14:16:15;;;;;;;1.98;0.50;;;;;;;18.83;49.41;101815.75;4786976;29;20545;-87
2022/11/13 14:18:41;;;;;;;1.05;0.40;;;;;;;18.81;49.71;101820.50;4794774;29;20038;-88
2022/11/13 14:21:15;;;;;;;3.58;0.50;;;;;;;18.69;43.75;101817.59;4789505;29;20031;-86
2022/11/13 14:23:49;;;;;;;2.10;0.50;;;;;;;18.60;49.63;101818.84;4814909;29;20027;-88
2022/11/13 14:26:15;;;;;;;2.67;0.93;;;;;;;18.65;49.40;101815.53;4793686;29;20039;-95
2022/11/13 14:29:00;;;;;;;5.47;0.75;;;;;;;18.79;49.11;101828.03;4778335;29;20062;-94
2022/11/13 14:31:28;;;;;;;1.80;0.50;;;;;;;18.82;48.76;101824.94;4795511;29;20046;-94
2022/11/13 14:33:54;;;;;;;2.78;0.45;;;;;;;18.87;48.96;101827.84;4782175;29;20121;-94
2022/11/13 14:36:30;;;;;;;1.25;0.43;;;;;;;18.91;48.94;101823.69;4789901;29;20031;-95
2022/11/13 14:38:56;;;;;;;3.20;0.60;;;;;;;18.93;48.93;101835.13;4782121;29;20066;-94
2022/11/13 14:41:32;;;;;;;1.42;0.38;;;;;;;18.91;48.92;101829.09;4785962;29;20080;-94
2022/11/13 14:43:58;;;;;;;2.30;0.40;;;;;;;18.94;48.83;101839.53;4794244;29;20030;-94
2022/11/13 14:46:26;;;;;;;2.63;0.50;;;;;;;18.94;48.93;101844.94;4789896;29;20042;-95
2022/11/13 14:48:53;;;;;;;1.65;0.50;;;;;;;18.97;49.00;101846.38;4792660;29;20091;-95
2022/11/13 14:51:27;;;;;;;0.70;0.50;;;;;;;19.00;48.79;101854.09;4786783;29;20042;-94
2022/11/13 14:54:03;;;;;;;0.85;0.47;;;;;;;19.02;49.00;101851.19;4794657;29;20517;-95
2022/11/13 14:56:33;;;;;;;1.30;0.40;;;;;;;19.02;48.99;101856.59;4784210;29;20324;-95
2022/11/13 14:59:25;;;;;;;1.05;0.55;;;;;;;19.02;48.88;101860.13;4791170;29;20073;-94
2022/11/13 15:01:55;;;;;;;2.45;0.40;;;;;;;19.05;48.85;101861.63;4803460;29;20088;-95
2022/11/13 15:04:20;;;;;;;1.67;0.52;;;;;;;19.04;48.95;101862.66;4810394;29;20430;-94
2022/11/13 15:06:47;;;;;;;3.13;0.65;;;;;;;19.10;48.79;101867.25;4799132;29;20057;-95
2022/11/13 15:09:14;;;;;;;1.88;0.50;;;;;;;19.06;48.86;101868.72;4803481;29;20039;-94
2022/11/13 15:11:40;;;;;;;1.00;0.40;;;;;;;19.09;48.60;101874.56;4795724;29;20038;-94
2022/11/13 15:14:15;;;;;;;0.70;0.50;;;;;;;19.08;48.83;101872.88;4819338;29;20034;-94
2022/11/13 15:16:40;;;;;;;3.10;0.55;;;;;;;19.10;48.70;101869.97;4796965;29;20026;-94
2022/11/13 15:19:15;;;;;;;0.82;0.50;;;;;;;19.11;48.49;101882.47;4817834;29;20125;-95
2022/11/13 15:21:41;;;;;;;1.83;0.60;;;;;;;19.14;48.50;101890.16;4789369;29;20037;-95
2022/11/13 15:24:11;;;;;;;2.97;0.52;;;;;;;19.11;48.92;101882.47;4795948;29;20046;-96
2022/11/13 15:26:37;;;;;;;2.90;0.57;;;;;;;19.13;48.75;101883.91;4814614;29;20038;-94
2022/11/13 15:29:03;;;;;;;0.47;0.40;;;;;;;19.15;48.56;101883.72;4797294;29;20027;-94
2022/11/13 15:31:30;;;;;;;1.35;0.60;;;;;;;19.14;48.74;101876.63;4795681;29;20031;-95
2022/11/13 15:33:56;;;;;;;3.33;0.60;;;;;;;19.16;48.49;101877.22;4799275;29;20035;-94
2022/11/13 15:36:22;;;;;;;1.40;0.45;;;;;;;19.14;48.64;101876.63;4810046;29;20166;-94
2022/11/13 15:38:47;;;;;;;1.10;0.55;;;;;;;19.17;48.55;101878.91;4798439;29;20429;-95
2022/11/13 15:41:18;;;;;;;1.92;0.45;;;;;;;19.17;48.48;101868.06;4817488;29;20110;-94
2022/11/13 15:43:48;;;;;;;1.95;0.52;;;;;;;19.21;48.27;101869.31;4792527;29;20042;-94
2022/11/13 15:46:16;;;;;;;2.30;0.60;;;;;;;19.20;48.40;101870.38;4791863;29;20111;-94
2022/11/13 15:48:41;;;;;;;0.50;0.40;;;;;;;19.23;48.45;101866.41;4794347;29;20110;-95
2022/11/13 15:51:22;;;;;;;0.57;0.47;;;;;;;19.24;48.35;101877.03;4813505;29;20114;-94
2022/11/13 15:53:50;;;;;;;1.20;0.60;;;;;;;19.20;48.41;101878.50;4809726;29;20035;-94
2022/11/13 15:56:16;;;;;;;3.45;0.50;;;;;;;19.21;48.17;101880.16;4809973;29;20046;-94
2022/11/13 15:58:42;;;;;;;0.80;0.40;;;;;;;19.23;48.39;101886.22;4783866;29;20038;-94
2022/11/13 16:01:09;;;;;;;1.77;0.60;;;;;;;19.25;48.16;101894.97;4800533;29;20109;-94
2022/11/13 16:03:38;;;;;;;1.10;0.40;;;;;;;19.24;48.16;101887.88;4791023;29;20054;-94
2022/11/13 16:06:06;;;;;;;1.77;0.60;;;;;;;19.24;48.23;101887.88;4807327;29;20030;-95
2022/11/13 16:08:32;;;;;;;1.23;0.38;;;;;;;19.22;48.25;101892.69;4789360;29;20065;-94
2022/11/13 16:10:58;;;;;;;1.05;0.50;;;;;;;19.24;48.17;101885.16;4794509;29;20135;-94
2022/11/13 16:13:23;;;;;;;2.08;0.60;;;;;;;19.26;48.15;101885.78;4797005;29;20034;-95
2022/11/13 16:15:49;;;;;;;1.17;0.50;;;;;;;19.26;48.20;101893.91;4818748;29;20094;-94
2022/11/13 16:18:21;;;;;;;1.48;0.50;;;;;;;19.28;47.89;101894.56;4816697;29;20391;-95
2022/11/13 16:20:47;;;;;;;1.40;0.60;;;;;;;19.25;48.17;101897.69;4801348;29;20030;-94
2022/11/13 16:23:14;;;;;;;1.88;0.70;;;;;;;19.26;48.03;101891.19;4807426;29;20436;-94
2022/11/13 16:25:40;;;;;;;1.73;0.50;;;;;;;19.27;48.11;101901.00;4796052;29;20035;-94
2022/11/13 16:28:17;;;;;;;1.35;0.60;;;;;;;19.27;47.91;101895.59;4810209;29;20589;-94
2022/11/13 16:30:43;;;;;;;2.33;0.52;;;;;;;19.29;48.11;101898.91;4782239;29;20353;-94
2022/11/13 16:33:09;;;;;;;1.27;0.50;;;;;;;19.24;47.86;101890.59;4797079;29;20571;-94
2022/11/13 16:35:34;;;;;;;1.13;0.50;;;;;;;19.26;47.93;101902.03;4811815;29;20033;-94
2022/11/13 16:38:00;;;;;;;1.15;0.50;;;;;;;19.30;47.87;101906.03;4795689;29;20026;-94
2022/11/13 16:40:26;;;;;;;1.60;0.75;;;;;;;19.31;47.67;101902.25;4790470;29;20110;-94
2022/11/13 16:42:52;;;;;;;1.45;0.63;;;;;;;19.29;47.90;101898.91;4811928;29;20036;-94
2022/11/13 16:45:18;;;;;;;1.65;0.60;;;;;;;19.31;47.73;101906.84;4811448;29;20296;-95
2022/11/13 16:47:44;;;;;;;0.63;0.47;;;;;;;19.30;47.67;101913.34;4813251;29;20645;-94
2022/11/13 16:50:17;;;;;;;0.60;0.40;;;;;;;19.32;47.79;101909.34;4804469;29;20230;-93
2022/11/13 16:52:42;;;;;;;0.80;0.60;;;;;;;19.30;47.81;101903.31;4813796;29;20144;-94
2022/11/13 16:55:08;;;;;;;2.38;0.45;;;;;;;19.33;47.62;101908.31;4792084;29;20027;-95
2022/11/13 16:57:34;;;;;;;0.75;0.50;;;;;;;19.31;47.64;101899.53;4815941;29;20377;-94
2022/11/13 16:59:59;;;;;;;1.35;0.40;;;;;;;19.34;47.69;101890.16;4791822;29;20504;-95
2022/11/13 17:02:25;;;;;;;0.50;0.50;;;;;;;19.35;47.63;101896.41;4790165;29;20130;-94
2022/11/13 17:04:50;;;;;;;1.80;0.65;;;;;;;19.36;47.56;101895.38;4792521;29;20036;-94
2022/11/13 17:07:16;;;;;;;0.80;0.43;;;;;;;19.36;47.66;101900.81;4793658;29;20053;-94
2022/11/13 17:09:43;;;;;;;1.40;0.60;;;;;;;19.35;47.68;101901.84;4795041;29;20101;-95
2022/11/13 17:12:11;;;;;;;0.77;0.60;;;;;;;19.32;47.54;101894.97;4795104;29;20043;-94
2022/11/13 17:14:37;;;;;;;2.50;0.63;;;;;;;19.36;47.57;101908.94;4786301;29;20208;-94
2022/11/13 17:17:03;;;;;;;3.80;0.60;;;;;;;19.33;47.36;101902.03;4793055;29;20396;-94
2022/11/13 17:19:29;;;;;;;2.72;0.70;;;;;;;19.32;47.54;101903.94;4798859;29;20038;-94
2022/11/13 17:21:54;;;;;;;2.17;0.60;;;;;;;19.26;47.22;101896.63;4794503;29;20126;-94
2022/11/13 17:24:20;;;;;;;1.65;0.60;;;;;;;19.25;47.33;101900.41;4793974;29;20054;-95
2022/11/13 17:26:49;;;;;;;0.63;0.50;;;;;;;19.24;47.30;101901.41;4788193;29;20387;-94
2022/11/13 17:29:15;;;;;;;0.68;0.43;;;;;;;19.29;47.16;101909.75;4766568;29;20090;-94
2022/11/13 17:31:40;;;;;;;0.77;0.55;;;;;;;19.31;47.06;101910.38;4797822;29;20031;-95
2022/11/13 17:34:06;;;;;;;1.05;0.47;;;;;;;19.33;47.28;101907.47;4794071;29;20114;-94
2022/11/13 17:36:32;;;;;;;1.00;0.52;;;;;;;19.30;47.11;101906.03;4797511;29;20427;-94
2022/11/13 17:38:57;;;;;;;1.15;0.80;;;;;;;19.39;47.08;101916.66;4791318;29;20047;-95
2022/11/13 17:41:23;;;;;;;2.58;0.98;;;;;;;19.30;47.07;101908.72;4787091;29;20077;-94
2022/11/13 17:43:49;;;;;;;1.67;0.70;;;;;;;19.37;47.08;101918.72;4790904;29;20040;-94
2022/11/13 17:46:16;;;;;;;0.90;0.50;;;;;;;19.30;47.01;101902.50;4789255;29;20124;-95
2022/11/13 17:48:41;;;;;;;1.25;0.60;;;;;;;19.32;47.18;101906.66;4787901;29;20474;-94
2022/11/13 17:51:09;;;;;;;1.45;0.60;;;;;;;19.33;47.05;101891.19;4778935;29;20035;-94
2022/11/13 17:53:34;;;;;;;1.73;0.60;;;;;;;19.38;47.06;101913.09;4773638;29;20046;-93
2022/11/13 17:56:01;;;;;;;1.70;0.80;;;;;;;19.39;47.08;101911.25;4773611;29;20054;-94
2022/11/13 17:58:27;;;;;;;1.85;0.60;;;;;;;19.40;47.14;101918.31;4790866;29;20431;-94
2022/11/13 18:00:53;;;;;;;0.85;0.70;;;;;;;19.44;46.91;101914.16;4790259;29;20798;-94
2022/11/13 18:03:18;;;;;;;2.55;0.77;;;;;;;19.42;46.90;101914.38;4806610;29;20062;-94
2022/11/13 18:05:44;;;;;;;1.27;0.70;;;;;;;19.43;46.90;101917.91;4807502;29;20117;-94
2022/11/13 18:08:10;;;;;;;1.17;0.65;;;;;;;19.42;46.98;101916.22;4810540;29;20117;-94
2022/11/13 18:10:40;;;;;;;2.45;0.65;;;;;;;19.42;46.65;101917.06;4810140;29;20125;-94
2022/11/13 18:13:06;;;;;;;0.90;0.52;;;;;;;19.41;46.71;101914.56;4793686;29;20039;-93
2022/11/13 18:15:37;;;;;;;1.77;0.73;;;;;;;19.39;46.63;101906.66;4810399;29;20041;-93
2022/11/13 18:18:06;;;;;;;1.63;0.70;;;;;;;19.44;46.58;101911.44;4792245;29;20023;-94
2022/11/13 18:20:38;;;;;;;1.58;0.60;;;;;;;19.43;46.63;101915.19;4794239;29;20276;-92
2022/11/13 18:23:03;;;;;;;1.17;0.75;;;;;;;19.45;46.46;101919.34;4807499;29;20034;-93
2022/11/13 18:25:29;;;;;;;1.17;0.75;;;;;;;19.43;46.77;101917.91;4810526;29;20048;-93
2022/11/13 18:27:55;;;;;;;1.10;0.60;;;;;;;19.44;46.61;101919.59;4804032;29;20039;-93
2022/11/13 18:30:20;;;;;;;0.80;0.60;;;;;;;19.42;46.58;101919.78;4810345;29;20432;-94
2022/11/13 18:32:46;;;;;;;2.10;0.80;;;;;;;19.38;46.58;101910.38;4793172;29;20041;-95
2022/11/13 18:35:11;;;;;;;1.02;0.60;;;;;;;19.44;46.60;101911.44;4805740;29;20117;-94
2022/11/13 18:37:37;;;;;;;0.95;0.60;;;;;;;19.44;46.36;101916.88;4807576;29;20608;-94
2022/11/13 18:40:03;;;;;;;3.92;0.70;;;;;;;19.43;46.40;101918.72;4791272;29;20121;-93
2022/11/13 18:42:29;;;;;;;2.78;0.80;;;;;;;19.42;46.38;101913.50;4790720;29;20042;-93
2022/11/13 18:44:54;;;;;;;1.60;0.90;;;;;;;19.44;46.40;101908.72;4808808;29;21926;-93
2022/11/13 18:47:20;;;;;;;1.13;0.70;;;;;;;19.44;46.29;101909.56;4806593;29;20045;-93
2022/11/13 18:49:45;;;;;;;2.90;0.68;;;;;;;19.43;46.36;101912.47;4805255;29;20046;-93
2022/11/13 18:52:11;;;;;;;1.67;0.80;;;;;;;19.44;46.23;101919.59;4806506;29;20563;-94
2022/11/13 18:54:37;;;;;;;1.55;0.70;;;;;;;19.44;46.20;101920.41;4793585;29;20027;-93
2022/11/13 18:57:02;;;;;;;1.35;0.70;;;;;;;19.42;46.27;101910.78;4791844;29;20022;-93
2022/11/13 18:59:28;;;;;;;1.40;0.70;;;;;;;19.45;46.25;101921.22;4789964;29;20506;-92
2022/11/13 19:01:54;;;;;;;3.00;0.77;;;;;;;19.43;46.18;101907.88;4808489;29;20085;-93
2022/11/13 19:04:19;;;;;;;1.25;0.63;;;;;;;19.44;46.06;101914.97;4776369;29;20285;-93
2022/11/13 19:06:45;;;;;;;1.45;0.80;;;;;;;19.47;46.13;101927.28;4808342;29;20109;-92
2022/11/13 19:09:12;;;;;;;1.67;0.70;;;;;;;19.46;46.04;101922.91;4811484;29;20463;-93
2022/11/13 19:11:37;;;;;;;1.33;0.90;;;;;;;19.38;46.10;101910.38;4791409;29;20039;-94
2022/11/13 19:14:03;;;;;;;1.27;0.77;;;;;;;19.43;46.13;101924.16;4809383;29;20397;-94
2022/11/13 19:16:33;;;;;;;1.75;0.70;;;;;;;19.42;45.93;101919.78;4805916;29;20031;-93
2022/11/13 19:19:07;;;;;;;6.88;2.25;;;;;;;18.29;40.62;101916.81;4824146;29;20069;-94
2022/11/13 19:21:33;;;;;;;6.33;1.40;;;;;;;18.67;45.22;101919.03;4790771;29;20030;-91
2022/11/13 19:24:00;;;;;;;4.30;1.13;;;;;;;18.88;45.92;101937.84;4807301;29;20034;-90
2022/11/13 19:26:25;;;;;;;5.85;1.15;;;;;;;18.89;46.14;101939.53;4791783;29;20034;-90
2022/11/13 19:29:16;;;;;;;4.88;1.40;;;;;;;18.73;44.03;101948.00;4808341;29;20039;-94
2022/11/13 19:31:44;;;;;;;4.32;1.40;;;;;;;18.73;45.96;101948.00;4793001;29;20078;-94
2022/11/13 19:34:14;;;;;;;6.25;1.42;;;;;;;18.66;44.97;101956.13;4778888;29;20043;-94
2022/11/13 19:36:40;;;;;;;7.25;1.40;;;;;;;18.55;45.53;101935.03;4774573;29;20045;-94
2022/11/13 19:39:06;;;;;;;6.30;1.20;;;;;;;18.66;46.25;101941.72;4763191;29;20404;-94
2022/11/13 19:41:31;;;;;;;6.82;1.23;;;;;;;18.65;46.14;101949.03;4787352;29;20034;-94
2022/11/13 19:44:00;;;;;;;4.35;1.50;;;;;;;18.64;46.42;101946.50;4776534;29;20504;-93
2022/11/13 19:46:27;;;;;;;6.28;1.10;;;;;;;18.60;46.67;101948.78;4761512;29;20381;-94
2022/11/13 19:48:52;;;;;;;5.53;1.40;;;;;;;18.60;46.79;101956.09;4762430;29;20489;-94
2022/11/13 19:51:22;;;;;;;5.47;1.20;;;;;;;18.67;47.02;101974.03;4776317;29;20343;-94
2022/11/13 19:53:52;;;;;;;4.53;1.00;;;;;;;18.53;46.84;101956.88;4762921;29;20035;-94
2022/11/13 19:56:20;;;;;;;3.05;1.23;;;;;;;18.56;47.17;101964.63;4791596;29;20088;-94
2022/11/13 19:58:46;;;;;;;6.90;1.10;;;;;;;18.58;47.08;101972.53;4761860;29;20034;-94
2022/11/13 20:01:17;;;;;;;4.07;1.33;;;;;;;18.55;47.19;101970.22;4776097;29;20438;-95
2022/11/13 20:03:55;;;;;;;3.38;1.13;;;;;;;18.54;47.06;101980.22;4803649;29;20568;-94
2022/11/13 20:06:21;;;;;;;4.13;1.13;;;;;;;18.62;47.42;101984.63;4775668;29;20034;-94
2022/11/13 20:08:47;;;;;;;3.13;1.00;;;;;;;18.52;47.37;101970.63;4779717;29;20046;-94
2022/11/13 20:11:15;;;;;;;1.80;1.10;;;;;;;18.51;47.37;101986.03;4803717;29;20133;-94
2022/11/13 20:13:41;;;;;;;2.97;1.35;;;;;;;18.60;47.45;101992.13;4806414;29;20037;-94
2022/11/13 20:16:11;;;;;;;3.47;1.10;;;;;;;18.49;47.35;101995.38;4806808;29;20038;-94
2022/11/13 20:18:37;;;;;;;3.28;1.10;;;;;;;18.55;47.45;101994.59;4806881;29;20030;-94
2022/11/13 20:21:03;;;;;;;2.88;1.23;;;;;;;18.50;47.52;101992.47;4807241;29;20121;-94
2022/11/13 20:23:28;;;;;;;2.17;1.10;;;;;;;18.49;47.52;101993.53;4771076;29;20031;-94
2022/11/13 20:25:58;;;;;;;2.60;1.08;;;;;;;18.48;47.81;101996.44;4778130;29;20041;-94
2022/11/13 20:28:24;;;;;;;1.83;0.90;;;;;;;18.47;47.76;101990.19;4778050;29;20480;-94
2022/11/13 20:30:50;;;;;;;4.90;1.00;;;;;;;18.49;47.56;101992.69;4773187;29;20041;-93
2022/11/13 20:33:16;;;;;;;2.08;0.90;;;;;;;18.45;47.73;101996.84;4773717;29;20480;-94
2022/11/13 20:35:42;;;;;;;2.92;0.90;;;;;;;18.52;47.57;102008.53;4777741;29;20125;-94
2022/11/13 20:38:18;;;;;;;2.70;0.68;;;;;;;18.44;47.74;102001.44;4777969;29;20110;-94
2022/11/13 20:40:44;;;;;;;1.65;1.13;;;;;;;18.48;47.76;102002.69;4792191;29;20388;-94
2022/11/13 20:43:09;;;;;;;2.35;0.90;;;;;;;18.48;47.68;102013.50;4779835;29;20125;-94
2022/11/13 20:45:41;;;;;;;3.58;1.02;;;;;;;18.49;47.72;102006.22;4774136;29;20047;-94
2022/11/13 20:48:07;;;;;;;3.55;1.20;;;;;;;18.41;47.81;101996.41;4775767;29;20034;-94
2022/11/13 20:50:35;;;;;;;2.40;0.80;;;;;;;18.50;47.80;102021.44;4793135;29;20167;-94
2022/11/13 20:53:00;;;;;;;2.67;0.90;;;;;;;18.38;47.67;102003.06;4789498;29;20065;-94
2022/11/13 20:55:26;;;;;;;2.33;1.08;;;;;;;18.36;47.77;101994.28;4813109;29;20027;-95
2022/11/13 20:57:51;;;;;;;3.78;0.90;;;;;;;18.41;47.78;102006.41;4813559;29;20031;-95
2022/11/13 21:00:17;;;;;;;3.22;1.08;;;;;;;18.38;47.90;101999.50;4818424;29;20429;-94
2022/11/13 21:02:43;;;;;;;3.25;1.08;;;;;;;18.35;47.72;101997.19;4801767;29;20110;-94
2022/11/13 21:05:08;;;;;;;2.42;1.02;;;;;;;18.47;47.84;102006.44;4797371;29;20039;-93
2022/11/13 21:07:34;;;;;;;3.67;0.88;;;;;;;18.47;47.78;102006.44;4816441;29;20026;-95
2022/11/13 21:10:00;;;;;;;1.52;0.88;;;;;;;18.45;47.88;102003.09;4815134;29;20317;-94
2022/11/13 21:12:26;;;;;;;0.95;0.80;;;;;;;18.45;47.72;102005.78;4814174;29;20126;-95
2022/11/13 21:14:52;;;;;;;2.05;0.70;;;;;;;18.43;47.92;102004.34;4799050;29;20174;-94
2022/11/13 21:17:17;;;;;;;1.42;0.90;;;;;;;18.45;47.85;102004.97;4814402;29;20121;-94
2022/11/13 21:19:43;;;;;;;3.22;1.08;;;;;;;18.42;48.10;102003.50;4817191;29;20049;-94
2022/11/13 21:22:09;;;;;;;1.60;1.00;;;;;;;18.42;47.92;102006.22;4800073;29;20042;-94
2022/11/13 21:24:36;;;;;;;3.78;1.00;;;;;;;18.42;47.88;101998.09;4784639;29;20122;-94
2022/11/13 21:27:02;;;;;;;2.05;0.95;;;;;;;18.44;47.90;102000.56;4815951;29;20464;-95
2022/11/13 21:29:28;;;;;;;0.90;0.80;;;;;;;18.42;47.68;101998.09;4798322;29;20138;-94
2022/11/13 21:31:53;;;;;;;3.63;0.98;;;;;;;18.43;47.89;102001.63;4816060;29;20078;-94
2022/11/13 21:34:19;;;;;;;2.33;1.10;;;;;;;18.32;47.80;101989.50;4813774;29;20133;-94
2022/11/13 21:36:45;;;;;;;3.17;1.10;;;;;;;18.39;47.78;101999.31;4816982;29;20551;-95
2022/11/13 21:39:10;;;;;;;2.00;1.08;;;;;;;18.32;47.75;102003.03;4814885;29;20542;-94
2022/11/13 21:41:36;;;;;;;1.92;0.95;;;;;;;18.33;47.78;101993.84;4814426;29;20039;-94
2022/11/13 21:44:03;;;;;;;1.70;0.90;;;;;;;18.38;47.61;101996.81;4814997;29;20030;-94
2022/11/13 21:46:33;;;;;;;2.30;1.10;;;;;;;18.30;47.78;101997.81;4798700;29;20049;-94
2022/11/13 21:49:06;;;;;;;2.42;1.00;;;;;;;18.29;47.84;101987.19;4813448;29;20034;-94
2022/11/13 21:51:33;;;;;;;1.27;1.00;;;;;;;18.26;47.71;101976.75;4818364;29;20034;-95
2022/11/13 21:53:58;;;;;;;1.40;0.90;;;;;;;18.30;47.74;101967.19;4812480;29;20043;-95
2022/11/13 21:56:25;;;;;;;4.22;1.48;;;;;;;18.32;47.87;101975.97;4812891;29;20031;-94
2022/11/13 21:58:50;;;;;;;1.58;1.02;;;;;;;18.24;47.83;101957.19;4793841;29;20039;-94
2022/11/13 22:01:16;;;;;;;3.13;1.23;;;;;;;18.27;47.62;101968.44;4798289;29;20049;-93
2022/11/13 22:03:46;;;;;;;1.48;0.90;;;;;;;18.26;47.78;101961.34;4768349;29;20562;-94
2022/11/13 22:06:21;;;;;;;1.42;0.98;;;;;;;18.34;47.63;101969.31;4764975;29;20051;-94
2022/11/13 22:09:37;;;;;;;2.75;1.25;;;;;;;18.34;47.73;101973.91;4777105;29;20050;-94
2022/11/13 22:12:03;;;;;;;1.63;1.00;;;;;;;18.32;47.87;101975.97;4778859;29;20103;-94
2022/11/13 22:14:28;;;;;;;2.08;1.00;;;;;;;18.23;47.61;101966.31;4794790;29;20081;-94
2022/11/13 22:16:54;;;;;;;1.95;1.20;;;;;;;18.23;47.74;101971.72;4795209;29;20110;-94
2022/11/13 22:19:20;;;;;;;2.20;1.00;;;;;;;18.26;47.80;101990.28;4793343;29;20485;-94
2022/11/13 22:21:45;;;;;;;2.55;1.25;;;;;;;18.22;47.95;101981.72;4783828;29;20409;-93
2022/11/13 22:24:12;;;;;;;1.80;1.10;;;;;;;18.26;47.81;101982.16;4775001;29;20389;-94
2022/11/13 22:26:44;;;;;;;2.72;1.30;;;;;;;18.31;47.67;101985.13;4784079;29;20184;-95
2022/11/13 22:29:09;;;;;;;1.95;1.17;;;;;;;18.27;47.75;101983.84;4771586;29;20035;-94
2022/11/13 22:31:38;;;;;;;2.53;1.35;;;;;;;18.19;47.67;101969.44;4786529;29;20282;-94
2022/11/13 22:34:03;;;;;;;1.75;1.23;;;;;;;18.16;47.72;101971.69;4784782;29;20039;-94
2022/11/13 22:36:31;;;;;;;2.08;1.35;;;;;;;18.25;47.54;101980.47;4793263;29;20045;-95
2022/11/13 22:38:57;;;;;;;2.47;1.33;;;;;;;18.20;47.59;101986.50;4771608;29;20064;-94
2022/11/13 22:41:28;;;;;;;2.92;1.50;;;;;;;18.16;47.40;101982.53;4778149;29;20026;-94
2022/11/13 22:44:03;;;;;;;1.80;1.25;;;;;;;18.22;47.61;101991.72;4769297;29;20054;-94